Time;durP1;ratioP1;P1;durP2;ratioP2;P2;SDS_P1;SDS_P2;PMS_P1;PMS_P2;Temp;Humidity;BMP_temperature;BMP_pressure;BME280_temperature;BME280_humidity;BME280_pressure;Samples;Min_cycle;Max_cycle;Signal;HPM_P1;HPM_P2
2023/12/20 00:01:28;;;;;;;16.00;5.80;;;;;;;;;;5031228;28;20509;-78
2023/12/20 00:03:54;;;;;;;15.18;5.45;;;;;;;;;;5030792;28;20040;-79
2023/12/20 00:06:20;;;;;;;15.85;6.68;;;;;;;;;;5030792;28;20025;-78
2023/12/20 00:08:46;;;;;;;14.43;5.18;;;;;;;;;;5031327;28;20052;-79
2023/12/20 00:11:12;;;;;;;14.18;5.03;;;;;;;;;;5030750;28;20457;-79
2023/12/20 00:13:38;;;;;;;7.50;4.25;;;;;;;;;;5031984;28;20364;-78
2023/12/20 00:16:04;;;;;;;10.60;5.35;;;3.60;90.50;;;;;;5030287;28;20044;-78
2023/12/20 00:18:30;;;;;;;12.20;4.68;;;;;;;;;;5029852;28;20032;-79
2023/12/20 00:20:56;;;;;;;7.13;4.75;;;;;;;;;;5031064;28;20022;-79
2023/12/20 00:23:23;;;;;;;7.45;4.57;;;;;;;;;;5043341;28;20029;-78
2023/12/20 00:25:49;;;;;;;14.43;6.80;;;6.40;90.80;;;;;;5050278;28;20053;-78
2023/12/20 00:28:15;;;;;;;15.15;6.82;;;;;;;;;;5035895;28;20056;-78
2023/12/20 00:30:41;;;;;;;14.23;5.25;;;;;;;;;;5035790;28;20371;-78
2023/12/20 00:33:07;;;;;;;18.08;6.10;;;;;;;;;;5049871;28;20025;-78
2023/12/20 00:35:33;;;;;;;13.32;5.35;;;;;;;;;;5050015;28;20486;-78
2023/12/20 00:37:59;;;;;;;19.45;8.50;;;;;;;;;;5047191;28;20052;-79
2023/12/20 00:40:25;;;;;;;14.40;7.75;;;4.80;99.90;;;;;;5047251;28;20016;-79
2023/12/20 00:42:51;;;;;;;16.58;6.07;;;;;;;;;;5048593;28;20497;-78
2023/12/20 00:45:17;;;;;;;7.90;5.75;;;;;;;;;;5046643;28;20021;-79
2023/12/20 00:47:43;;;;;;;12.68;5.85;;;;;;;;;;5046916;28;20039;-78
2023/12/20 00:50:09;;;;;;;11.20;5.85;;;;;;;;;;5036242;28;20196;-78
2023/12/20 00:52:35;;;;;;;12.27;4.75;;;;;;;;;;5047458;28;20056;-78
2023/12/20 00:55:01;;;;;;;10.95;6.32;;;;;;;;;;5048574;28;20049;-79
2023/12/20 00:57:27;;;;;;;9.02;6.03;;;;;;;;;;5045520;28;20025;-78
2023/12/20 00:59:53;;;;;;;15.45;6.93;;;;;;;;;;5037936;28;20036;-79
2023/12/20 01:02:19;;;;;;;16.33;6.88;;;;;;;;;;5047135;28;20052;-78
2023/12/20 01:04:45;;;;;;;16.10;5.60;;;4.80;99.90;;;;;;5042971;28;20529;-79
2023/12/20 01:07:11;;;;;;;13.88;6.25;;;;;;;;;;5030750;28;20037;-78
2023/12/20 01:09:37;;;;;;;16.30;6.50;;;;;;;;;;5047893;28;20561;-77
2023/12/20 01:12:02;;;;;;;13.60;5.82;;;4.80;99.90;;;;;;5041530;28;20025;-78
2023/12/20 01:14:28;;;;;;;14.88;6.40;;;;;;;;;;5048577;28;20247;-78
2023/12/20 01:16:54;;;;;;;11.20;5.55;;;;;;;;;;5039241;28;20018;-80
2023/12/20 01:19:21;;;;;;;12.27;5.20;;;;;;;;;;5048461;28;20029;-78
2023/12/20 01:21:47;;;;;;;11.65;5.32;;;;;;;;;;5047184;28;20025;-78
2023/12/20 01:24:13;;;;;;;16.73;5.28;;;;;;;;;;5031497;28;20021;-78
2023/12/20 01:26:39;;;;;;;17.85;6.25;;;;;;;;;;5029336;28;20025;-78
2023/12/20 01:29:04;;;;;;;12.25;5.78;;;4.80;99.90;;;;;;5027969;28;20029;-77
2023/12/20 01:31:30;;;;;;;10.80;5.53;;;;;;;;;;5042465;28;20036;-78
2023/12/20 01:33:56;;;;;;;14.40;6.15;;;;;;;;;;5029104;28;20017;-77
2023/12/20 01:36:22;;;;;;;11.77;5.93;;;;;;;;;;5029466;28;20112;-79
2023/12/20 01:38:49;;;;;;;12.60;6.90;;;;;;;;;;5035459;28;20021;-78
2023/12/20 01:41:15;;;;;;;9.97;5.70;;;;;;;;;;5038707;28;20029;-78
2023/12/20 01:43:41;;;;;;;10.10;5.57;;;4.80;99.90;;;;;;5042341;28;20052;-79
2023/12/20 01:46:07;;;;;;;10.63;5.70;;;4.90;99.90;;;;;;5045509;28;20025;-78
2023/12/20 01:48:32;;;;;;;16.60;7.10;;;5.10;99.90;;;;;;5041825;28;20029;-79
2023/12/20 01:51:00;;;;;;;16.48;6.05;;;4.80;93.70;;;;;;5048444;28;20039;-78
2023/12/20 01:53:27;;;;;;;;;;;4.80;94.00;;;;;;5048538;28;20565;-78
2023/12/20 01:55:56;;;;;;;9.95;4.15;;;4.80;94.60;;;;;;5038725;28;19904;-78
2023/12/20 01:58:22;;;;;;;11.52;4.82;;;4.70;95.40;;;;;;5033427;28;20104;-79
2023/12/20 02:00:49;;;;;;;8.80;4.20;;;;;;;;;;5042353;28;20060;-79
2023/12/20 02:03:15;;;;;;;13.77;5.82;;;4.80;99.90;;;;;;5048541;28;20037;-78
2023/12/20 02:05:41;;;;;;;12.82;5.20;;;;;;;;;;5036300;28;20018;-78
2023/12/20 02:08:07;;;;;;;11.77;6.88;;;4.80;99.90;;;;;;5045742;28;20029;-78
2023/12/20 02:10:33;;;;;;;8.23;5.55;;;;;;;;;;5042113;28;20052;-78
2023/12/20 02:12:59;;;;;;;10.90;4.90;;;4.80;98.30;;;;;;5048943;28;20405;-78
2023/12/20 02:15:25;;;;;;;11.48;4.97;;;;;;;;;;5048005;28;20033;-78
2023/12/20 02:17:50;;;;;;;11.63;5.45;;;4.70;99.10;;;;;;5040687;28;20032;-77
2023/12/20 02:20:16;;;;;;;13.90;6.05;;;4.90;99.90;;;;;;5041513;28;20021;-78
2023/12/20 02:22:42;;;;;;;14.18;7.63;;;;;;;;;;5030747;28;20410;-78
2023/12/20 02:25:08;;;;;;;12.77;5.57;;;;;;;;;;5033201;28;20026;-78
2023/12/20 02:27:35;;;;;;;9.68;4.70;;;5.00;99.90;;;;;;5052903;28;20035;-77
2023/12/20 02:30:00;;;;;;;10.40;5.18;;;5.00;99.90;;;;;;5050579;28;20045;-78
2023/12/20 02:32:26;;;;;;;7.40;3.60;;;;;;;;;;5032326;28;20025;-78
2023/12/20 02:34:52;;;;;;;9.43;4.00;;;;;;;;;;5032619;28;20026;-78
2023/12/20 02:37:18;;;;;;;11.30;5.88;;;;;;;;;;5033001;28;20021;-78
2023/12/20 02:39:44;;;;;;;8.88;4.70;;;;;;;;;;5034031;28;20067;-79
2023/12/20 02:42:10;;;;;;;8.27;4.38;;;;;;;;;;5032996;28;20500;-78
2023/12/20 02:44:36;;;;;;;15.50;4.50;;;5.10;99.90;;;;;;5030994;28;20048;-78
2023/12/20 02:47:02;;;;;;;6.88;4.90;;;;;;;;;;5031650;28;20017;-77
2023/12/20 02:49:28;;;;;;;7.75;4.22;;;4.90;99.90;;;;;;5032493;28;20124;-78
2023/12/20 02:51:54;;;;;;;11.13;4.38;;;;;;;;;;5032085;28;20105;-78
2023/12/20 02:54:20;;;;;;;6.15;4.10;;;;;;;;;;5032353;28;20605;-77
2023/12/20 02:56:46;;;;;;;7.18;3.65;;;5.10;98.20;;;;;;5032483;28;20018;-78
2023/12/20 02:59:12;;;;;;;6.45;3.92;;;;;;;;;;5032344;28;20022;-77
2023/12/20 03:01:45;;;;;;;8.98;4.70;;;4.30;96.60;;;;;;5037964;28;20055;-77
2023/12/20 03:04:12;;;;;;;7.85;3.78;;;4.90;99.90;;;;;;5037700;28;20022;-77
2023/12/20 03:06:38;;;;;;;;;;;5.80;97.30;;;;;;5033956;28;20036;-78
2023/12/20 03:09:04;;;;;;;7.18;3.83;;;;;;;;;;5046400;28;19905;-78
2023/12/20 03:11:30;;;;;;;9.18;4.80;;;5.60;99.90;;;;;;5049310;28;20445;-78
2023/12/20 03:13:56;;;;;;;8.57;3.35;;;5.20;99.90;;;;;;5049998;28;20028;-76
2023/12/20 03:16:22;;;;;;;10.40;4.75;;;5.10;99.90;;;;;;5047492;28;20030;-78
2023/12/20 03:18:48;;;;;;;12.02;4.72;;;5.10;99.90;;;;;;5045594;28;20028;-77
2023/12/20 03:21:14;;;;;;;8.68;5.13;;;;;;;;;;5050220;28;20048;-78
2023/12/20 03:23:40;;;;;;;5.70;3.67;;;5.20;97.50;;;;;;5050099;28;20028;-77
2023/12/20 03:26:09;;;;;;;3.67;3.03;;;5.30;99.90;;;;;;5050637;28;20029;-78
2023/12/20 03:28:36;;;;;;;8.43;3.40;;;5.20;99.90;;;;;;5049319;28;20076;-78
2023/12/20 03:31:02;;;;;;;16.88;5.68;;;;;;;;;;5050313;28;20496;-79
2023/12/20 03:33:28;;;;;;;7.55;3.13;;;5.30;99.90;;;;;;5034994;28;20103;-78
2023/12/20 03:35:54;;;;;;;8.35;5.72;;;5.30;99.90;;;;;;5050637;28;20025;-78
2023/12/20 03:38:20;;;;;;;9.90;4.18;;;;;;;;;;5049815;28;20021;-78
2023/12/20 03:40:45;;;;;;;5.95;2.92;;;;;;;;;;5050435;28;20029;-78
2023/12/20 03:43:11;;;;;;;8.13;3.20;;;;;;;;;;5049776;28;20025;-78
2023/12/20 03:45:37;;;;;;;11.80;4.43;;;;;;;;;;5050629;28;20048;-77
2023/12/20 03:48:04;;;;;;;4.97;3.10;;;;;;;;;;5047626;28;20088;-78
2023/12/20 03:50:30;;;;;;;12.85;4.20;;;;;;;;;;5038417;28;20043;-78
2023/12/20 03:52:56;;;;;;;14.65;4.65;;;;;;;;;;5049372;28;20025;-79
2023/12/20 03:55:22;;;;;;;7.20;3.45;;;;;;;;;;5050543;28;20032;-78
2023/12/20 03:57:48;;;;;;;17.85;5.60;;;;;;;;;;5049065;28;20032;-78
2023/12/20 04:00:14;;;;;;;13.25;6.03;;;;;;;;;;5050130;28;20394;-78
2023/12/20 04:02:41;;;;;;;13.55;5.93;;;5.10;99.90;;;;;;5050087;28;20025;-77
2023/12/20 04:05:08;;;;;;;12.20;4.60;;;5.20;98.90;;;;;;5041884;28;20021;-78
2023/12/20 04:07:34;;;;;;;10.25;5.40;;;;;;;;;;5035144;28;20042;-78
2023/12/20 04:10:00;;;;;;;7.78;3.88;;;;;;;;;;5048952;28;20525;-78
2023/12/20 04:12:27;;;;;;;11.27;3.85;;;5.40;99.90;;;;;;5045268;28;20025;-79
2023/12/20 04:14:53;;;;;;;7.38;4.50;;;;;;;;;;5041819;28;20029;-79
2023/12/20 04:17:20;;;;;;;8.40;4.00;;;5.10;99.90;;;;;;5044852;28;20041;-79
2023/12/20 04:19:45;;;;;;;18.80;4.47;;;5.10;99.90;;;;;;5050138;28;20099;-77
2023/12/20 04:22:11;;;;;;;10.20;4.03;;;;;;;;;;5046545;28;20049;-78
2023/12/20 04:24:37;;;;;;;5.97;4.35;;;;;;;;;;5049034;28;20024;-78
2023/12/20 04:27:04;;;;;;;7.93;4.55;;;;;;;;;;5047361;28;20483;-78
2023/12/20 04:29:30;;;;;;;6.70;3.92;;;;;;;;;;5048958;28;20029;-78
2023/12/20 04:31:56;;;;;;;6.07;3.75;;;;;;;;;;5026306;28;20033;-78
2023/12/20 04:34:22;;;;;;;7.65;3.20;;;5.30;99.90;;;;;;5030595;28;20071;-79
2023/12/20 04:36:48;;;;;;;5.00;2.90;;;5.50;99.90;;;;;;5030283;28;20491;-79
2023/12/20 04:39:15;;;;;;;5.80;3.50;;;;;;;;;;5034005;28;20080;-78
2023/12/20 04:41:41;;;;;;;8.97;3.60;;;;;;;;;;5023253;28;20028;-79
2023/12/20 04:44:06;;;;;;;4.05;2.83;;;5.70;99.90;;;;;;5030497;28;20033;-78
2023/12/20 04:46:32;;;;;;;2.95;2.67;;;;;;;;;;5031352;28;20013;-79
2023/12/20 04:48:58;;;;;;;9.57;4.50;;;;;;;;;;5029958;28;20041;-79
2023/12/20 04:51:24;;;;;;;7.03;3.42;;;;;;;;;;5033065;28;20024;-79
2023/12/20 04:53:50;;;;;;;8.55;3.67;;;5.40;99.90;;;;;;5020730;28;20057;-78
2023/12/20 04:56:16;;;;;;;5.32;3.40;;;;;;;;;;5028796;28;20387;-79
2023/12/20 04:58:42;;;;;;;12.93;3.90;;;5.60;99.90;;;;;;5031668;28;20021;-77
2023/12/20 05:01:09;;;;;;;6.85;4.22;;;5.40;99.90;;;;;;5032308;28;20045;-77
2023/12/20 05:03:35;;;;;;;10.65;4.50;;;;;;;;;;5031054;28;20044;-79
2023/12/20 05:06:00;;;;;;;5.13;2.97;;;5.10;99.90;;;;;;5032006;28;20851;-78
2023/12/20 05:08:26;;;;;;;8.73;3.50;;;;;;;;;;5029651;28;20030;-79
2023/12/20 05:10:56;;;;;;;5.90;3.55;;;5.60;99.90;;;;;;5031937;28;20139;-78
2023/12/20 05:13:22;;;;;;;7.40;3.38;;;;;;;;;;5030690;28;20030;-78
2023/12/20 05:15:48;;;;;;;9.77;3.47;;;5.60;99.90;;;;;;5031393;28;20032;-79
2023/12/20 05:18:14;;;;;;;7.35;3.30;;;;;;;;;;5024927;28;20022;-78
2023/12/20 05:20:40;;;;;;;3.38;2.28;;;5.80;99.90;;;;;;5026413;28;20432;-79
2023/12/20 05:23:07;;;;;;;5.10;2.60;;;5.50;99.90;;;;;;5030096;28;20040;-77
2023/12/20 05:25:33;;;;;;;7.85;3.08;;;;;;;;;;5034565;28;20029;-78
2023/12/20 05:27:59;;;;;;;6.20;2.22;;;;;;;;;;5039573;28;20029;-79
2023/12/20 05:30:25;;;;;;;11.82;4.10;;;;;;;;;;5027581;28;20048;-79
2023/12/20 05:32:51;;;;;;;3.80;2.90;;;;;;;;;;5025363;28;20025;-81
2023/12/20 05:35:17;;;;;;;4.25;2.65;;;5.90;99.90;;;;;;5032525;28;20052;-81
2023/12/20 05:37:43;;;;;;;8.07;3.58;;;;;;;;;;5018555;28;20022;-80
2023/12/20 05:40:10;;;;;;;5.00;2.88;;;;;;;;;;5024089;28;20091;-82
2023/12/20 05:42:36;;;;;;;3.65;2.75;;;;;;;;;;5040728;28;20029;-86
2023/12/20 05:45:03;;;;;;;0.73;0.73;;;;;;;;;;5044107;28;20021;-86
2023/12/20 05:47:29;;;;;;;2.38;1.63;;;;;;;;;;5025350;28;20048;-87
2023/12/20 05:49:55;;;;;;;2.70;1.30;;;;;;;;;;5043015;28;20037;-87
2023/12/20 05:52:21;;;;;;;1.77;1.45;;;;;;;;;;5030239;28;20531;-90
2023/12/20 05:54:47;;;;;;;1.43;0.87;;;;;;;;;;5031425;28;20049;-91
2023/12/20 05:57:13;;;;;;;1.48;1.10;;;;;;;;;;5032948;28;20264;-92
2023/12/20 05:59:39;;;;;;;2.28;1.13;;;;;;;;;;5032723;28;20036;-89
2023/12/20 06:02:05;;;;;;;1.65;0.95;;;;;;;;;;5026229;28;20075;-89
2023/12/20 06:04:31;;;;;;;0.70;0.63;;;;;;;;;;5027391;28;20068;-86
2023/12/20 06:06:57;;;;;;;0.95;0.88;;;;;;;;;;5028226;28;20072;-88
2023/12/20 06:09:24;;;;;;;0.77;0.77;;;;;;;;;;5032139;28;20025;-87
2023/12/20 06:11:50;;;;;;;0.60;0.60;;;;;;;;;;5030099;28;20044;-80
2023/12/20 06:14:17;;;;;;;3.47;1.20;;;;;;;;;;5029668;28;20022;-87
2023/12/20 06:16:43;;;;;;;1.63;0.80;;;;;;;;;;5029965;28;20041;-85
2023/12/20 06:19:09;;;;;;;0.38;0.38;;;6.70;99.90;;;;;;5021792;28;20037;-89
2023/12/20 06:21:35;;;;;;;0.50;0.50;;;;;;;;;;5022801;28;20447;-88
2023/12/20 06:24:00;;;;;;;0.68;0.68;;;;;;;;;;5016976;28;20021;-89
2023/12/20 06:26:26;;;;;;;0.73;0.73;;;6.80;99.90;;;;;;5025720;28;20103;-89
2023/12/20 06:28:52;;;;;;;1.58;1.48;;;;;;;;;;5028410;28;20033;-87
2023/12/20 06:31:18;;;;;;;0.70;0.70;;;;;;;;;;5027526;28;20037;-88
2023/12/20 06:33:44;;;;;;;0.60;0.60;;;;;;;;;;5018234;28;20041;-90
2023/12/20 06:36:14;;;;;;;0.60;0.60;;;6.60;99.90;;;;;;5028009;28;20029;-90
2023/12/20 06:38:40;;;;;;;1.00;0.90;;;;;;;;;;5031095;28;20056;-91
2023/12/20 06:41:06;;;;;;;2.22;0.60;;;6.90;99.90;;;;;;5025955;28;20108;-91
2023/12/20 06:43:33;;;;;;;0.60;0.60;;;;;;;;;;5025099;28;20578;-91
2023/12/20 06:45:59;;;;;;;1.75;1.05;;;;;;;;;;5026967;28;20379;-91
2023/12/20 06:48:25;;;;;;;2.70;1.80;;;;;;;;;;5031112;28;20075;-92
2023/12/20 06:50:51;;;;;;;4.25;2.15;;;;;;;;;;5030016;28;20379;-91
2023/12/20 06:53:17;;;;;;;5.28;1.40;;;;;;;;;;5026492;28;20108;-91
2023/12/20 06:55:43;;;;;;;4.03;1.73;;;;;;;;;;5023988;28;20037;-90
2023/12/20 06:58:09;;;;;;;1.98;1.15;;;;;;;;;;5028416;28;20049;-91
2023/12/20 07:00:35;;;;;;;2.53;1.63;;;7.00;99.90;;;;;;5029529;28;20677;-93
2023/12/20 07:03:01;;;;;;;2.85;1.50;;;;;;;;;;5031603;28;20053;-91
2023/12/20 07:05:27;;;;;;;1.95;1.13;;;6.80;99.90;;;;;;5015011;28;20022;-90
2023/12/20 07:07:53;;;;;;;2.00;0.80;;;;;;;;;;5027428;28;20032;-90
2023/12/20 07:10:19;;;;;;;1.20;1.10;;;;;;;;;;5031938;28;20033;-87
2023/12/20 07:12:45;;;;;;;1.15;0.73;;;;;;;;;;5033303;28;20040;-89
2023/12/20 07:15:12;;;;;;;1.00;0.90;;;;;;;;;;5026344;28;20029;-92
2023/12/20 07:17:38;;;;;;;0.80;0.80;;;;;;;;;;5029704;28;20105;-91
2023/12/20 07:20:04;;;;;;;0.95;0.73;;;7.00;99.90;;;;;;5031447;28;20065;-85
2023/12/20 07:22:33;;;;;;;2.42;1.27;;;7.10;99.90;;;;;;5022612;28;20039;-87
2023/12/20 07:24:59;;;;;;;4.32;1.10;;;;;;;;;;5021095;28;20128;-87
2023/12/20 07:27:25;;;;;;;1.60;0.85;;;7.10;99.90;;;;;;5029064;28;20096;-90
2023/12/20 07:29:51;;;;;;;0.80;0.68;;;;;;;;;;5033549;28;20133;-84
2023/12/20 07:32:17;;;;;;;0.55;0.55;;;7.00;99.90;;;;;;5029574;28;20100;-88
2023/12/20 07:34:43;;;;;;;0.90;0.70;;;;;;;;;;5021065;28;21026;-90
2023/12/20 07:37:11;;;;;;;6.72;2.83;;;;;;;;;;5034376;28;20044;-91
2023/12/20 07:39:40;;;;;;;1.17;1.08;;;7.50;99.90;;;;;;5033643;28;20021;-91
2023/12/20 07:42:06;;;;;;;2.20;1.08;;;;;;;;;;5028423;28;21304;-91
2023/12/20 07:44:32;;;;;;;0.82;0.80;;;;;;;;;;5024889;28;20109;-84
2023/12/20 07:46:58;;;;;;;1.15;0.98;;;;;;;;;;5031066;28;20112;-91
2023/12/20 07:49:24;;;;;;;0.98;0.90;;;;;;;;;;5026255;28;20498;-87
2023/12/20 07:51:50;;;;;;;1.95;0.93;;;;;;;;;;5028819;28;20037;-90
2023/12/20 07:54:16;;;;;;;1.75;0.70;;;;;;;;;;5018200;28;20056;-87
2023/12/20 07:56:42;;;;;;;0.90;0.90;;;7.10;99.90;;;;;;5031744;28;20040;-84
2023/12/20 07:59:08;;;;;;;1.20;1.10;;;;;;;;;;5027089;28;20021;-88
2023/12/20 08:01:35;;;;;;;1.13;0.90;;;;;;;;;;5030778;28;20065;-82
2023/12/20 08:04:01;;;;;;;0.63;0.63;;;;;;;;;;5029394;28;20111;-91
2023/12/20 08:06:27;;;;;;;4.45;1.00;;;;;;;;;;5033134;28;20406;-90
2023/12/20 08:08:53;;;;;;;1.15;0.90;;;;;;;;;;5033361;28;20484;-87
2023/12/20 08:11:19;;;;;;;1.00;0.90;;;;;;;;;;5033844;28;20052;-90
2023/12/20 08:13:45;;;;;;;1.45;1.20;;;;;;;;;;5028631;28;20108;-92
2023/12/20 08:16:13;;;;;;;1.25;0.98;;;;;;;;;;5033717;28;20524;-85
2023/12/20 08:18:39;;;;;;;2.33;1.65;;;;;;;;;;5040888;28;20079;-87
2023/12/20 08:21:07;;;;;;;1.63;1.35;;;;;;;;;;5041714;28;20026;-87
2023/12/20 08:23:34;;;;;;;1.50;1.27;;;;;;;;;;5026764;28;20030;-91
2023/12/20 08:26:06;;;;;;;1.80;1.02;;;7.60;99.90;;;;;;5024401;28;20116;-84
2023/12/20 08:28:33;;;;;;;0.70;0.70;;;7.70;99.90;;;;;;5031459;28;20021;-86
2023/12/20 08:31:00;;;;;;;1.60;0.80;;;8.40;99.90;;;;;;5028137;28;20033;-83
2023/12/20 08:33:26;;;;;;;1.30;0.80;;;8.40;99.90;;;;;;5019982;28;20646;-89
2023/12/20 08:35:51;;;;;;;1.90;1.05;;;8.30;99.90;;;;;;5020274;28;20033;-82
2023/12/20 08:38:18;;;;;;;0.95;0.88;;;8.30;99.90;;;;;;5028630;28;20783;-86
2023/12/20 08:40:45;;;;;;;0.75;0.75;;;;;;;;;;5028984;28;20133;-77
2023/12/20 08:43:10;;;;;;;0.98;0.93;;;8.50;99.90;;;;;;5028448;28;20732;-90
2023/12/20 08:45:36;;;;;;;0.80;0.80;;;8.30;99.90;;;;;;5027900;28;20022;-89
2023/12/20 08:48:03;;;;;;;15.05;5.38;;;8.20;99.90;;;;;;5032317;28;20029;-93
2023/12/20 08:50:29;;;;;;;7.53;3.65;;;;;;;;;;5036594;28;20128;-87
2023/12/20 08:52:55;;;;;;;3.85;3.13;;;;;;;;;;5028146;28;20040;-86
2023/12/20 08:55:21;;;;;;;2.72;2.17;;;;;;;;;;5015490;28;20029;-83
2023/12/20 08:57:46;;;;;;;2.00;1.30;;;7.90;99.90;;;;;;5028252;28;20061;-85
2023/12/20 09:00:13;;;;;;;1.50;0.77;;;8.00;99.90;;;;;;5024998;28;20037;-81
2023/12/20 09:02:39;;;;;;;10.68;4.13;;;;;;;;;;5033783;28;20109;-87
2023/12/20 09:05:05;;;;;;;4.60;2.88;;;;;;;;;;5021438;28;20021;-84
2023/12/20 09:07:31;;;;;;;6.25;2.22;;;7.70;99.90;;;;;;5031095;28;20025;-91
2023/12/20 09:09:58;;;;;;;2.58;1.88;;;;;;;;;;5039190;28;20079;-90
2023/12/20 09:12:24;;;;;;;1.95;1.35;;;;;;;;;;5034354;28;20076;-91
2023/12/20 09:14:51;;;;;;;1.98;1.25;;;7.70;99.90;;;;;;5022073;28;20091;-88
2023/12/20 09:17:18;;;;;;;1.40;0.82;;;7.70;99.90;;;;;;5034483;28;20037;-84
2023/12/20 09:19:44;;;;;;;0.80;0.80;;;7.70;99.90;;;;;;5031337;28;20099;-86
2023/12/20 09:22:10;;;;;;;1.48;1.08;;;;;;;;;;5037967;28;20049;-84
2023/12/20 09:24:37;;;;;;;1.60;1.10;;;;;;;;;;5018036;28;20037;-84
2023/12/20 09:27:03;;;;;;;1.13;1.05;;;;;;;;;;5030917;28;20109;-88
2023/12/20 09:29:29;;;;;;;1.30;1.20;;;8.20;99.90;;;;;;5028737;28;20021;-89
2023/12/20 09:31:55;;;;;;;6.05;1.80;;;;;;;;;;5031554;28;20102;-80
2023/12/20 09:34:22;;;;;;;2.25;1.52;;;;;;;;;;5017109;28;20132;-85
2023/12/20 09:36:48;;;;;;;2.42;1.23;;;;;;;;;;5032301;28;20506;-84
2023/12/20 09:39:14;;;;;;;2.63;1.88;;;;;;;;;;5029571;28;20040;-85
2023/12/20 09:41:44;;;;;;;14.38;6.28;;;11.20;89.40;;;;;;5026761;28;20057;-85
2023/12/20 09:44:14;;;;;;;2.75;1.92;;;;;;;;;;5018480;28;20033;-85
2023/12/20 09:46:43;;;;;;;5.53;2.85;;;10.30;89.80;;;;;;5029091;28;20367;-81
2023/12/20 09:49:09;;;;;;;2.22;1.42;;;;;;;;;;5027445;28;20033;-87
2023/12/20 09:51:35;;;;;;;1.63;1.33;;;;;;;;;;5027382;28;20032;-81
2023/12/20 09:54:04;;;;;;;2.13;1.58;;;10.00;90.80;;;;;;5026339;28;20064;-93
2023/12/20 09:56:30;;;;;;;2.08;1.45;;;;;;;;;;5036471;28;20295;-94
2023/12/20 09:58:56;;;;;;;2.72;2.33;;;;;;;;;;5032506;28;20116;-89
2023/12/20 10:01:27;;;;;;;5.40;1.75;;;10.20;86.80;;;;;;5035002;28;20025;-90
2023/12/20 10:03:54;;;;;;;2.80;1.50;;;9.60;90.10;;;;;;5021131;28;20036;-90
2023/12/20 10:06:21;;;;;;;2.35;1.30;;;9.30;99.90;;;;;;5033596;28;20022;-92
2023/12/20 10:08:47;;;;;;;1.50;1.40;;;;;;;;;;5031681;28;20025;-92
2023/12/20 10:11:13;;;;;;;1.88;1.17;;;8.70;99.60;;;;;;5032349;28;20477;-82
2023/12/20 10:13:44;;;;;;;1.23;1.15;;;8.60;93.20;;;;;;5020610;28;20040;-82
2023/12/20 10:16:10;;;;;;;1.20;1.10;;;;;;;;;;5031741;28;20017;-81
2023/12/20 10:18:36;;;;;;;0.70;0.70;;;;;;;;;;5028099;28;20054;-82
2023/12/20 10:21:03;;;;;;;1.95;1.52;;;;;;;;;;5031202;28;20057;-83
2023/12/20 10:23:29;;;;;;;2.05;1.58;;;;;;;;;;5024090;28;20068;-82
2023/12/20 10:25:57;;;;;;;2.78;1.00;;;14.40;68.90;;;;;;5023446;28;20434;-91
2023/12/20 10:28:27;;;;;;;2.55;1.10;;;;;;;;;;5035143;28;20025;-81
2023/12/20 10:30:54;;;;;;;1.38;1.20;;;;;;;;;;5032137;28;20033;-82
2023/12/20 10:33:29;;;;;;;3.33;1.70;;;16.80;61.10;;;;;;5021501;28;20601;-81
2023/12/20 10:35:56;;;;;;;6.88;5.78;;;19.00;56.50;;;;;;5021311;28;20041;-81
2023/12/20 10:38:22;;;;;;;1.10;1.00;;;;;;;;;;5028260;28;20025;-81
2023/12/20 10:40:48;;;;;;;1.77;1.67;;;;;;;;;;5022626;28;20034;-81
2023/12/20 10:43:15;;;;;;;2.97;2.25;;;16.90;59.00;;;;;;5018797;28;20383;-82
2023/12/20 10:45:43;;;;;;;2.20;1.80;;;20.90;52.80;;;;;;5022793;28;20022;-86
2023/12/20 10:48:14;;;;;;;6.80;3.00;;;23.10;45.60;;;;;;5034660;28;20036;-87
2023/12/20 10:50:41;;;;;;;40.63;15.00;;;22.40;45.80;;;;;;5034153;28;20041;-90
2023/12/20 10:53:07;;;;;;;11.95;5.15;;;19.10;43.60;;;;;;5034858;28;20037;-88
2023/12/20 10:55:33;;;;;;;5.72;3.25;;;16.60;70.60;;;;;;5029658;28;20034;-90
2023/12/20 10:58:08;;;;;;;2.75;1.63;;;15.30;50.30;;;;;;5042076;28;20579;-84
2023/12/20 11:00:40;;;;;;;5.55;3.05;;;15.10;55.40;;;;;;5030196;28;20071;-89
2023/12/20 11:03:10;;;;;;;4.63;2.72;;;14.10;54.40;;;;;;5022110;28;20056;-90
2023/12/20 11:05:58;;;;;;;3.05;1.98;;;12.90;74.90;;;;;;5026388;28;20108;-89
2023/12/20 11:08:35;;;;;;;2.63;2.05;;;11.90;58.10;;;;;;5030712;28;20513;-88
2023/12/20 11:11:06;;;;;;;2.00;1.80;;;11.10;59.70;;;;;;5035390;28;20045;-90
2023/12/20 11:13:37;;;;;;;1.15;1.00;;;10.50;61.60;;;;;;5031828;28;20032;-89
2023/12/20 11:16:04;;;;;;;1.27;1.05;;;10.50;62.80;;;;;;5030479;28;20087;-90
2023/12/20 11:18:30;;;;;;;1.65;1.20;;;;;;;;;;5036483;28;20786;-89
2023/12/20 11:21:06;;;;;;;1.40;1.30;;;11.50;61.40;;;;;;5034154;28;20029;-90
2023/12/20 11:23:34;;;;;;;0.85;0.85;;;11.20;60.00;;;;;;5021743;28;20112;-89
2023/12/20 11:26:00;;;;;;;2.03;1.10;;;;;;;;;;5026134;28;20575;-86
2023/12/20 11:28:26;;;;;;;5.40;0.98;;;10.40;61.40;;;;;;5033958;28;20062;-90
2023/12/20 11:30:54;;;;;;;1.02;1.02;;;11.10;62.80;;;;;;5040579;28;20402;-89
2023/12/20 11:33:23;;;;;;;;;;;11.80;62.20;;;;;;5028154;28;20029;-89
2023/12/20 11:35:49;;;;;;;1.50;1.35;;;;;;;;;;5025563;28;20464;-88
2023/12/20 11:38:15;;;;;;;1.45;1.38;;;;;;;;;;5031669;28;20025;-90
2023/12/20 11:40:44;;;;;;;1.58;1.48;;;15.00;68.80;;;;;;5031025;28;20064;-89
2023/12/20 11:43:10;;;;;;;3.47;1.13;;;;;;;;;;5028599;28;20508;-90
2023/12/20 11:45:36;;;;;;;1.27;0.77;;;;;;;;;;5023386;28;20026;-88
2023/12/20 11:48:02;;;;;;;1.15;0.70;;;13.30;77.70;;;;;;5030496;28;20052;-88
2023/12/20 11:50:30;;;;;;;0.90;0.90;;;;;;;;;;5030480;28;20054;-90
2023/12/20 11:52:56;;;;;;;1.17;0.80;;;;;;;;;;5029279;28;20025;-90
2023/12/20 11:55:26;;;;;;;1.55;1.10;;;11.60;58.10;;;;;;5025939;28;20124;-88
2023/12/20 11:57:52;;;;;;;4.30;1.45;;;10.90;74.10;;;;;;5029949;28;20329;-88
2023/12/20 12:00:18;;;;;;;1.25;1.08;;;10.30;77.40;;;;;;5038945;28;20191;-89
2023/12/20 12:02:44;;;;;;;3.55;0.80;;;;;;;;;;5031249;28;20025;-89
2023/12/20 12:05:10;;;;;;;2.40;1.40;;;;;;;;;;5020091;28;20053;-89
2023/12/20 12:07:37;;;;;;;1.02;0.98;;;9.60;87.30;;;;;;5037891;28;20732;-88
2023/12/20 12:10:03;;;;;;;2.70;1.25;;;;;;;;;;5031519;28;20030;-89
2023/12/20 12:12:30;;;;;;;2.80;2.60;;;;;;;;;;5035460;28;20820;-88
2023/12/20 12:14:57;;;;;;;3.83;0.85;;;;;;;;;;5021728;28;20029;-88
2023/12/20 12:17:23;;;;;;;;;;;10.40;62.10;;;;;;5036189;28;20033;-87
2023/12/20 12:19:48;;;;;;;0.70;0.70;;;9.80;84.30;;;;;;5033057;28;19968;-80
2023/12/20 12:22:16;;;;;;;0.60;0.60;;;;;;;;;;5028089;28;20020;-81
2023/12/20 12:24:41;;;;;;;;;;;10.30;63.30;;;;;;5025621;28;20025;-81
2023/12/20 12:27:08;;;;;;;2.65;0.80;;;;;;;;;;5031959;28;19962;-79
2023/12/20 12:29:34;;;;;;;1.58;0.70;;;;;;;;;;5028931;28;20037;-80
2023/12/20 12:32:01;;;;;;;3.13;1.50;;;10.80;59.10;;;;;;5027007;28;20032;-80
2023/12/20 12:34:30;;;;;;;1.43;1.00;;;10.60;82.50;;;;;;5019702;28;20063;-83
2023/12/20 12:36:57;;;;;;;1.95;0.80;;;10.70;60.00;;;;;;5027394;28;20116;-82
2023/12/20 12:39:25;;;;;;;4.03;0.95;;;11.10;83.20;;;;;;5028806;28;20033;-80
2023/12/20 12:41:51;;;;;;;1.13;1.02;;;;;;;;;;5033602;28;20030;-82
2023/12/20 12:44:17;;;;;;;5.38;1.58;;;;;;;;;;5019826;28;20117;-80
2023/12/20 12:46:44;;;;;;;0.57;0.57;;;;;;;;;;5026491;28;20217;-79
2023/12/20 12:49:10;;;;;;;0.88;0.88;;;;;;;;;;5028703;28;20025;-83
2023/12/20 12:51:36;;;;;;;0.70;0.70;;;;;;;;;;5035804;28;20029;-83
2023/12/20 12:54:02;;;;;;;3.00;0.93;;;;;;;;;;5022952;28;20427;-84
2023/12/20 12:56:28;;;;;;;1.48;1.35;;;;;;;;;;5034506;28;20115;-84
2023/12/20 12:58:54;;;;;;;0.77;0.73;;;;;;;;;;5034189;28;20111;-84
2023/12/20 13:01:20;;;;;;;1.75;0.80;;;;;;;;;;5027941;28;20033;-85
2023/12/20 13:03:46;;;;;;;3.05;0.60;;;;;;;;;;5023122;28;20025;-85
2023/12/20 13:06:14;;;;;;;6.95;0.90;;;;;;;;;;5025422;28;20049;-84
2023/12/20 13:08:40;;;;;;;3.60;1.17;;;;;;;;;;5027395;28;20017;-86
2023/12/20 13:11:06;;;;;;;1.85;0.75;;;;;;;;;;5036499;28;20201;-85
2023/12/20 13:13:32;;;;;;;0.60;0.60;;;;;;;;;;5032185;28;20036;-87
2023/12/20 13:15:58;;;;;;;13.00;1.17;;;;;;;;;;5016439;28;20040;-82
2023/12/20 13:18:24;;;;;;;1.77;1.00;;;;;;;;;;5035341;28;20041;-90
2023/12/20 13:20:50;;;;;;;0.60;0.60;;;;;;;;;;5023846;28;20037;-91
2023/12/20 13:23:18;;;;;;;2.65;1.10;;;;;;;;;;5024553;28;20084;-87
2023/12/20 13:25:45;;;;;;;0.50;0.50;;;;;;;;;;5005341;28;20768;-84
2023/12/20 13:28:12;;;;;;;1.67;1.50;;;;;;;;;;5025651;28;20025;-83
2023/12/20 13:30:38;;;;;;;2.28;0.93;;;;;;;;;;5031963;28;20379;-86
2023/12/20 13:33:05;;;;;;;0.90;0.73;;;;;;;;;;5027242;28;20022;-85
2023/12/20 13:35:31;;;;;;;0.65;0.65;;;;;;;;;;5020225;28;20449;-84
2023/12/20 13:37:57;;;;;;;3.97;0.73;;;;;;;;;;5020983;28;20080;-91
2023/12/20 13:40:23;;;;;;;4.60;0.63;;;8.90;71.30;;;;;;5032970;28;20029;-85
2023/12/20 13:42:49;;;;;;;0.70;0.70;;;;;;;;;;5028930;28;21024;-86
2023/12/20 13:45:16;;;;;;;0.63;0.63;;;8.60;63.90;;;;;;5023047;28;20033;-86
2023/12/20 13:47:42;;;;;;;1.98;1.35;;;;;;;;;;5032485;28;20029;-90
2023/12/20 13:50:08;;;;;;;0.70;0.70;;;8.40;88.90;;;;;;5023802;28;20028;-80
2023/12/20 13:52:35;;;;;;;2.27;0.93;;;;;;;;;;5027150;28;20025;-81